KRBG/RBG METAR and TAF weather

Enter ICAO airport designator
Station Type Date Time Source
KRBG METAR 2019/09/21 03:53 UTC NOAA

KRBG 210353Z AUTO 35003KT 10SM CLR 17/13 A3012 RMK AO2 SLP201 T01720128


Station Type Date Time Source
KRBG Decoded METAR 2019/09/21 03:53 UTC NOAA

ROSEBURG REGIONAL AIRPORT, OR, United States (KRBG) 43-14N 123-21W 154M
Sep 20, 2019 - 11:53 PM EDT / 2019.09.21 0353 UTC
Wind: from the N (350 degrees) at 3 MPH (3 KT):0
Visibility: 10 mile(s):0
Sky conditions: clear
Temperature: 63.0 F (17.2 C)
Dew Point: 55.0 F (12.8 C)
Relative Humidity: 75%
Pressure (altimeter): 30.12 in. Hg (1019 hPa)
ob: KRBG 210353Z AUTO 35003KT 10SM CLR 17/13 A3012 RMK AO2 SLP201 T01720128
cycle: 4

Station Type Date Time Source
KRBG TAF 2019/09/20 18:51 UTC NOAA

TAF KRBG 201749Z 2018/2118 36005KT P6SM SCT025 BKN035
FM202100 01006KT P6SM SCT050 SCT100
FM211000 00000KT 4SM BR OVC002
FM211600 17001KT P6SM OVC025

Example: see airport list